sensor_id;sensor_type;location;lat;lon;timestamp;temperature;humidity
33815;DHT22;20121;51.910;8.406;2022-10-16T00:01:34;13.30;99.90
33815;DHT22;20121;51.910;8.406;2022-10-16T00:04:01;13.30;99.90
33815;DHT22;20121;51.910;8.406;2022-10-16T00:06:28;13.30;99.90
33815;DHT22;20121;51.910;8.406;2022-10-16T00:08:54;12.90;99.90
33815;DHT22;20121;51.910;8.406;2022-10-16T00:11:23;13.30;99.90
33815;DHT22;20121;51.910;8.406;2022-10-16T00:13:51;13.30;99.90
33815;DHT22;20121;51.910;8.406;2022-10-16T00:16:18;13.20;99.90
33815;DHT22;20121;51.910;8.406;2022-10-16T00:18:43;13.40;99.90
33815;DHT22;20121;51.910;8.406;2022-10-16T00:21:14;13.20;99.90
33815;DHT22;20121;51.910;8.406;2022-10-16T00:23:41;13.20;99.90
33815;DHT22;20121;51.910;8.406;2022-10-16T00:26:09;13.20;99.90
33815;DHT22;20121;51.910;8.406;2022-10-16T00:31:10;13.10;99.90
33815;DHT22;20121;51.910;8.406;2022-10-16T00:33:38;13.10;99.90
33815;DHT22;20121;51.910;8.406;2022-10-16T00:36:05;13.10;99.90
33815;DHT22;20121;51.910;8.406;2022-10-16T00:38:32;13.10;99.90
33815;DHT22;20121;51.910;8.406;2022-10-16T00:40:58;13.10;99.90
33815;DHT22;20121;51.910;8.406;2022-10-16T00:43:34;13.10;99.90
33815;DHT22;20121;51.910;8.406;2022-10-16T00:46:02;13.10;99.90
33815;DHT22;20121;51.910;8.406;2022-10-16T00:48:28;13.10;99.90
33815;DHT22;20121;51.910;8.406;2022-10-16T00:50:54;13.00;99.90
33815;DHT22;20121;51.910;8.406;2022-10-16T00:53:20;13.00;99.90
33815;DHT22;20121;51.910;8.406;2022-10-16T00:55:46;13.00;99.90
33815;DHT22;20121;51.910;8.406;2022-10-16T00:58:12;13.00;99.90
33815;DHT22;20121;51.910;8.406;2022-10-16T01:00:38;12.90;99.90
33815;DHT22;20121;51.910;8.406;2022-10-16T01:03:32;12.90;99.90
33815;DHT22;20121;51.910;8.406;2022-10-16T01:09:13;12.70;99.90
33815;DHT22;20121;51.910;8.406;2022-10-16T01:11:52;12.80;99.90
33815;DHT22;20121;51.910;8.406;2022-10-16T01:14:51;12.70;99.90
33815;DHT22;20121;51.910;8.406;2022-10-16T01:17:43;12.70;99.90
33815;DHT22;20121;51.910;8.406;2022-10-16T01:23:03;12.60;99.90
33815;DHT22;20121;51.910;8.406;2022-10-16T01:25:39;12.60;99.90
33815;DHT22;20121;51.910;8.406;2022-10-16T01:28:11;12.60;99.90
33815;DHT22;20121;51.910;8.406;2022-10-16T01:30:40;12.50;99.90
33815;DHT22;20121;51.910;8.406;2022-10-16T01:33:16;12.50;99.90
33815;DHT22;20121;51.910;8.406;2022-10-16T01:35:49;12.50;99.90
33815;DHT22;20121;51.910;8.406;2022-10-16T01:38:30;12.50;99.90
33815;DHT22;20121;51.910;8.406;2022-10-16T01:41:03;12.40;99.90
33815;DHT22;20121;51.910;8.406;2022-10-16T01:43:36;12.40;99.90
33815;DHT22;20121;51.910;8.406;2022-10-16T01:46:03;12.40;99.90
33815;DHT22;20121;51.910;8.406;2022-10-16T01:48:31;12.40;99.90
33815;DHT22;20121;51.910;8.406;2022-10-16T01:51:06;12.40;99.90
33815;DHT22;20121;51.910;8.406;2022-10-16T01:53:34;12.40;99.90
33815;DHT22;20121;51.910;8.406;2022-10-16T01:56:00;12.30;99.90
33815;DHT22;20121;51.910;8.406;2022-10-16T01:58:29;12.40;99.90
33815;DHT22;20121;51.910;8.406;2022-10-16T02:01:00;12.30;99.90
33815;DHT22;20121;51.910;8.406;2022-10-16T02:03:27;12.40;99.90
33815;DHT22;20121;51.910;8.406;2022-10-16T02:05:56;12.40;99.90
33815;DHT22;20121;51.910;8.406;2022-10-16T02:08:24;12.30;99.90
33815;DHT22;20121;51.910;8.406;2022-10-16T02:10:51;12.40;99.90
33815;DHT22;20121;51.910;8.406;2022-10-16T02:13:23;12.30;99.90
33815;DHT22;20121;51.910;8.406;2022-10-16T02:15:51;12.00;99.90
33815;DHT22;20121;51.910;8.406;2022-10-16T02:18:17;12.30;99.90
33815;DHT22;20121;51.910;8.406;2022-10-16T02:20:50;12.30;99.90
33815;DHT22;20121;51.910;8.406;2022-10-16T02:23:23;12.30;99.90
33815;DHT22;20121;51.910;8.406;2022-10-16T02:25:50;12.30;99.90
33815;DHT22;20121;51.910;8.406;2022-10-16T02:28:22;12.30;99.90
33815;DHT22;20121;51.910;8.406;2022-10-16T02:30:58;12.30;99.90
33815;DHT22;20121;51.910;8.406;2022-10-16T02:33:26;12.30;99.90
33815;DHT22;20121;51.910;8.406;2022-10-16T02:35:53;12.50;99.90
33815;DHT22;20121;51.910;8.406;2022-10-16T02:38:21;12.40;99.90
33815;DHT22;20121;51.910;8.406;2022-10-16T02:40:47;12.40;99.90
33815;DHT22;20121;51.910;8.406;2022-10-16T02:43:13;12.40;99.90
33815;DHT22;20121;51.910;8.406;2022-10-16T02:45:39;12.50;99.90
33815;DHT22;20121;51.910;8.406;2022-10-16T02:48:05;12.50;99.90
33815;DHT22;20121;51.910;8.406;2022-10-16T02:50:31;12.50;99.90
33815;DHT22;20121;51.910;8.406;2022-10-16T02:52:56;12.50;99.90
33815;DHT22;20121;51.910;8.406;2022-10-16T02:55:22;12.60;99.90
33815;DHT22;20121;51.910;8.406;2022-10-16T02:57:48;12.60;99.90
33815;DHT22;20121;51.910;8.406;2022-10-16T03:00:15;12.50;99.90
33815;DHT22;20121;51.910;8.406;2022-10-16T03:02:41;12.50;99.90
33815;DHT22;20121;51.910;8.406;2022-10-16T03:05:07;12.50;99.90
33815;DHT22;20121;51.910;8.406;2022-10-16T03:07:33;12.50;99.90
33815;DHT22;20121;51.910;8.406;2022-10-16T03:09:58;12.50;99.90
33815;DHT22;20121;51.910;8.406;2022-10-16T03:12:26;12.50;99.90
33815;DHT22;20121;51.910;8.406;2022-10-16T03:14:52;12.50;99.90
33815;DHT22;20121;51.910;8.406;2022-10-16T03:17:18;12.50;99.90
33815;DHT22;20121;51.910;8.406;2022-10-16T03:19:43;12.40;99.90
33815;DHT22;20121;51.910;8.406;2022-10-16T03:22:09;12.40;99.90
33815;DHT22;20121;51.910;8.406;2022-10-16T03:24:35;12.40;99.90
33815;DHT22;20121;51.910;8.406;2022-10-16T03:27:00;12.40;99.90
33815;DHT22;20121;51.910;8.406;2022-10-16T03:29:26;12.40;99.90
33815;DHT22;20121;51.910;8.406;2022-10-16T03:31:53;12.40;99.90
33815;DHT22;20121;51.910;8.406;2022-10-16T03:34:18;12.40;99.90
33815;DHT22;20121;51.910;8.406;2022-10-16T03:36:44;12.40;99.90
33815;DHT22;20121;51.910;8.406;2022-10-16T03:39:09;12.70;99.90
33815;DHT22;20121;51.910;8.406;2022-10-16T03:41:35;12.40;99.90
33815;DHT22;20121;51.910;8.406;2022-10-16T03:44:01;12.40;99.90
33815;DHT22;20121;51.910;8.406;2022-10-16T03:46:26;12.40;99.90
33815;DHT22;20121;51.910;8.406;2022-10-16T03:48:52;12.60;99.90
33815;DHT22;20121;51.910;8.406;2022-10-16T03:51:18;12.40;99.90
33815;DHT22;20121;51.910;8.406;2022-10-16T03:53:43;12.40;99.90
33815;DHT22;20121;51.910;8.406;2022-10-16T03:56:09;12.40;99.90
33815;DHT22;20121;51.910;8.406;2022-10-16T03:58:34;12.50;99.90
33815;DHT22;20121;51.910;8.406;2022-10-16T04:01:00;12.50;99.90
33815;DHT22;20121;51.910;8.406;2022-10-16T04:03:26;12.50;99.90
33815;DHT22;20121;51.910;8.406;2022-10-16T04:05:51;12.50;99.90
33815;DHT22;20121;51.910;8.406;2022-10-16T04:08:17;12.50;99.90
33815;DHT22;20121;51.910;8.406;2022-10-16T04:10:43;12.60;99.90
33815;DHT22;20121;51.910;8.406;2022-10-16T04:13:10;12.60;99.90
33815;DHT22;20121;51.910;8.406;2022-10-16T04:15:35;12.60;99.90
33815;DHT22;20121;51.910;8.406;2022-10-16T04:18:01;12.60;99.90
33815;DHT22;20121;51.910;8.406;2022-10-16T04:20:26;12.70;99.90
33815;DHT22;20121;51.910;8.406;2022-10-16T04:22:53;12.70;99.90
33815;DHT22;20121;51.910;8.406;2022-10-16T04:25:18;12.70;99.90
33815;DHT22;20121;51.910;8.406;2022-10-16T04:27:44;12.70;99.90
33815;DHT22;20121;51.910;8.406;2022-10-16T04:30:10;12.80;99.90
33815;DHT22;20121;51.910;8.406;2022-10-16T04:32:35;12.80;99.90
33815;DHT22;20121;51.910;8.406;2022-10-16T04:35:01;12.80;99.90
33815;DHT22;20121;51.910;8.406;2022-10-16T04:37:28;12.80;99.90
33815;DHT22;20121;51.910;8.406;2022-10-16T04:39:53;12.80;99.90
33815;DHT22;20121;51.910;8.406;2022-10-16T04:42:20;12.80;99.90
33815;DHT22;20121;51.910;8.406;2022-10-16T04:44:46;12.80;99.90
33815;DHT22;20121;51.910;8.406;2022-10-16T04:47:11;12.80;99.90
33815;DHT22;20121;51.910;8.406;2022-10-16T04:49:37;12.80;99.90
33815;DHT22;20121;51.910;8.406;2022-10-16T04:52:03;12.80;99.90
33815;DHT22;20121;51.910;8.406;2022-10-16T04:54:29;12.90;99.90
33815;DHT22;20121;51.910;8.406;2022-10-16T04:56:54;12.90;99.90
33815;DHT22;20121;51.910;8.406;2022-10-16T04:59:21;12.90;99.90
33815;DHT22;20121;51.910;8.406;2022-10-16T05:01:46;12.90;99.90
33815;DHT22;20121;51.910;8.406;2022-10-16T05:04:12;12.80;99.90
33815;DHT22;20121;51.910;8.406;2022-10-16T05:06:38;12.80;99.90
33815;DHT22;20121;51.910;8.406;2022-10-16T05:09:05;12.80;99.90
33815;DHT22;20121;51.910;8.406;2022-10-16T05:11:31;12.80;99.90
33815;DHT22;20121;51.910;8.406;2022-10-16T05:13:56;12.80;99.90
33815;DHT22;20121;51.910;8.406;2022-10-16T05:16:22;12.70;99.90
33815;DHT22;20121;51.910;8.406;2022-10-16T05:18:48;12.70;99.90
33815;DHT22;20121;51.910;8.406;2022-10-16T05:21:13;12.70;99.90
33815;DHT22;20121;51.910;8.406;2022-10-16T05:23:39;12.70;99.90
33815;DHT22;20121;51.910;8.406;2022-10-16T05:26:04;12.60;99.90
33815;DHT22;20121;51.910;8.406;2022-10-16T05:28:30;12.60;99.90
33815;DHT22;20121;51.910;8.406;2022-10-16T05:30:57;12.50;99.90
33815;DHT22;20121;51.910;8.406;2022-10-16T05:33:25;12.50;99.90
33815;DHT22;20121;51.910;8.406;2022-10-16T05:35:51;12.50;99.90
33815;DHT22;20121;51.910;8.406;2022-10-16T05:38:17;12.50;99.90
33815;DHT22;20121;51.910;8.406;2022-10-16T05:40:50;12.40;99.90
33815;DHT22;20121;51.910;8.406;2022-10-16T05:43:15;12.40;99.90
33815;DHT22;20121;51.910;8.406;2022-10-16T05:45:41;12.40;99.90
33815;DHT22;20121;51.910;8.406;2022-10-16T05:48:07;12.40;99.90
33815;DHT22;20121;51.910;8.406;2022-10-16T05:50:32;12.40;99.90
33815;DHT22;20121;51.910;8.406;2022-10-16T05:52:58;12.40;99.90
33815;DHT22;20121;51.910;8.406;2022-10-16T05:55:24;12.40;99.90
33815;DHT22;20121;51.910;8.406;2022-10-16T05:57:49;12.40;99.90
33815;DHT22;20121;51.910;8.406;2022-10-16T06:00:15;12.30;99.90
33815;DHT22;20121;51.910;8.406;2022-10-16T06:02:40;12.40;99.90
33815;DHT22;20121;51.910;8.406;2022-10-16T06:05:06;12.30;99.90
33815;DHT22;20121;51.910;8.406;2022-10-16T06:07:34;12.30;99.90
33815;DHT22;20121;51.910;8.406;2022-10-16T06:10:01;12.30;99.90
33815;DHT22;20121;51.910;8.406;2022-10-16T06:12:27;12.30;99.90
33815;DHT22;20121;51.910;8.406;2022-10-16T06:14:52;12.30;99.90
33815;DHT22;20121;51.910;8.406;2022-10-16T06:17:18;12.40;99.90
33815;DHT22;20121;51.910;8.406;2022-10-16T06:19:44;12.40;99.90
33815;DHT22;20121;51.910;8.406;2022-10-16T06:22:09;12.40;99.90
33815;DHT22;20121;51.910;8.406;2022-10-16T06:24:35;12.40;99.90
33815;DHT22;20121;51.910;8.406;2022-10-16T06:27:01;12.40;99.90
33815;DHT22;20121;51.910;8.406;2022-10-16T06:29:26;12.50;99.90
33815;DHT22;20121;51.910;8.406;2022-10-16T06:31:52;12.50;99.90
33815;DHT22;20121;51.910;8.406;2022-10-16T06:34:18;12.50;99.90
33815;DHT22;20121;51.910;8.406;2022-10-16T06:36:44;12.60;99.90
33815;DHT22;20121;51.910;8.406;2022-10-16T06:39:09;12.30;99.90
33815;DHT22;20121;51.910;8.406;2022-10-16T06:41:35;12.60;99.90
33815;DHT22;20121;51.910;8.406;2022-10-16T06:44:01;12.70;99.90
33815;DHT22;20121;51.910;8.406;2022-10-16T06:46:30;12.70;99.90
33815;DHT22;20121;51.910;8.406;2022-10-16T06:48:56;12.90;99.90
33815;DHT22;20121;51.910;8.406;2022-10-16T06:51:23;12.80;99.90
33815;DHT22;20121;51.910;8.406;2022-10-16T06:53:54;12.80;99.90
33815;DHT22;20121;51.910;8.406;2022-10-16T06:56:24;12.90;99.90
33815;DHT22;20121;51.910;8.406;2022-10-16T06:58:51;12.90;99.90
33815;DHT22;20121;51.910;8.406;2022-10-16T07:01:19;13.00;99.90
33815;DHT22;20121;51.910;8.406;2022-10-16T07:03:46;13.00;99.90
33815;DHT22;20121;51.910;8.406;2022-10-16T07:06:15;13.10;99.90
33815;DHT22;20121;51.910;8.406;2022-10-16T07:08:42;13.10;99.90
33815;DHT22;20121;51.910;8.406;2022-10-16T07:11:17;13.20;99.90
33815;DHT22;20121;51.910;8.406;2022-10-16T07:13:44;13.20;99.90
33815;DHT22;20121;51.910;8.406;2022-10-16T07:16:13;13.30;99.90
33815;DHT22;20121;51.910;8.406;2022-10-16T07:18:39;13.30;99.90
33815;DHT22;20121;51.910;8.406;2022-10-16T07:21:14;13.40;99.90
33815;DHT22;20121;51.910;8.406;2022-10-16T07:23:40;13.50;99.90
33815;DHT22;20121;51.910;8.406;2022-10-16T07:26:06;13.50;99.90
33815;DHT22;20121;51.910;8.406;2022-10-16T07:28:33;13.60;99.90
33815;DHT22;20121;51.910;8.406;2022-10-16T07:31:03;13.60;99.90
33815;DHT22;20121;51.910;8.406;2022-10-16T07:33:30;13.70;99.90
33815;DHT22;20121;51.910;8.406;2022-10-16T07:35:55;13.70;99.90
33815;DHT22;20121;51.910;8.406;2022-10-16T07:38:21;13.80;99.90
33815;DHT22;20121;51.910;8.406;2022-10-16T07:40:48;13.90;99.90
33815;DHT22;20121;51.910;8.406;2022-10-16T07:43:14;13.90;99.90
33815;DHT22;20121;51.910;8.406;2022-10-16T07:45:47;14.00;99.90
33815;DHT22;20121;51.910;8.406;2022-10-16T07:48:15;14.10;99.90
33815;DHT22;20121;51.910;8.406;2022-10-16T07:50:41;14.10;99.90
33815;DHT22;20121;51.910;8.406;2022-10-16T07:53:06;14.10;99.90
33815;DHT22;20121;51.910;8.406;2022-10-16T07:55:32;14.10;99.90
33815;DHT22;20121;51.910;8.406;2022-10-16T07:57:58;14.10;99.90
33815;DHT22;20121;51.910;8.406;2022-10-16T08:00:23;14.10;99.90
33815;DHT22;20121;51.910;8.406;2022-10-16T08:02:49;14.10;99.90
33815;DHT22;20121;51.910;8.406;2022-10-16T08:05:15;14.10;99.90
33815;DHT22;20121;51.910;8.406;2022-10-16T08:07:41;14.10;99.90
33815;DHT22;20121;51.910;8.406;2022-10-16T08:10:09;14.10;99.90
33815;DHT22;20121;51.910;8.406;2022-10-16T08:12:35;14.10;99.90
33815;DHT22;20121;51.910;8.406;2022-10-16T08:15:00;14.20;99.90
33815;DHT22;20121;51.910;8.406;2022-10-16T08:17:26;14.30;99.90
33815;DHT22;20121;51.910;8.406;2022-10-16T08:19:52;14.50;99.90
33815;DHT22;20121;51.910;8.406;2022-10-16T08:22:17;14.60;99.90
33815;DHT22;20121;51.910;8.406;2022-10-16T08:24:43;14.70;99.90
33815;DHT22;20121;51.910;8.406;2022-10-16T08:27:08;14.90;99.90
33815;DHT22;20121;51.910;8.406;2022-10-16T08:29:34;15.00;99.90
33815;DHT22;20121;51.910;8.406;2022-10-16T08:32:00;15.20;99.90
33815;DHT22;20121;51.910;8.406;2022-10-16T08:34:25;15.30;99.90
33815;DHT22;20121;51.910;8.406;2022-10-16T08:36:53;15.50;99.90
33815;DHT22;20121;51.910;8.406;2022-10-16T08:39:19;15.60;99.90
33815;DHT22;20121;51.910;8.406;2022-10-16T08:47:40;16.20;99.90
33815;DHT22;20121;51.910;8.406;2022-10-16T08:50:13;16.30;99.90
33815;DHT22;20121;51.910;8.406;2022-10-16T08:52:44;16.50;99.90
33815;DHT22;20121;51.910;8.406;2022-10-16T08:55:43;16.60;99.90
33815;DHT22;20121;51.910;8.406;2022-10-16T08:58:15;16.80;99.90
33815;DHT22;20121;51.910;8.406;2022-10-16T09:00:43;16.90;99.90
33815;DHT22;20121;51.910;8.406;2022-10-16T09:03:40;17.10;99.90
33815;DHT22;20121;51.910;8.406;2022-10-16T09:18:00;17.70;99.90
33815;DHT22;20121;51.910;8.406;2022-10-16T09:23:22;18.10;99.90
33815;DHT22;20121;51.910;8.406;2022-10-16T09:25:50;18.20;99.90
33815;DHT22;20121;51.910;8.406;2022-10-16T09:28:17;18.40;99.90
33815;DHT22;20121;51.910;8.406;2022-10-16T09:30:44;18.50;99.90
33815;DHT22;20121;51.910;8.406;2022-10-16T09:33:11;18.70;99.90
33815;DHT22;20121;51.910;8.406;2022-10-16T09:35:47;18.80;99.90
33815;DHT22;20121;51.910;8.406;2022-10-16T09:38:28;18.80;99.90
33815;DHT22;20121;51.910;8.406;2022-10-16T09:40:55;18.70;99.90
33815;DHT22;20121;51.910;8.406;2022-10-16T09:46:07;18.90;99.90
33815;DHT22;20121;51.910;8.406;2022-10-16T09:51:02;19.10;99.90
33815;DHT22;20121;51.910;8.406;2022-10-16T09:53:43;19.20;99.90
33815;DHT22;20121;51.910;8.406;2022-10-16T09:56:30;19.10;99.90
33815;DHT22;20121;51.910;8.406;2022-10-16T09:59:00;19.00;99.90
33815;DHT22;20121;51.910;8.406;2022-10-16T10:01:55;19.00;99.90
33815;DHT22;20121;51.910;8.406;2022-10-16T10:04:24;19.20;99.90
33815;DHT22;20121;51.910;8.406;2022-10-16T10:06:58;19.30;99.90
33815;DHT22;20121;51.910;8.406;2022-10-16T10:09:27;19.30;99.90
33815;DHT22;20121;51.910;8.406;2022-10-16T10:12:01;19.40;99.90
33815;DHT22;20121;51.910;8.406;2022-10-16T10:14:37;19.50;99.90
33815;DHT22;20121;51.910;8.406;2022-10-16T10:19:48;19.80;99.90
33815;DHT22;20121;51.910;8.406;2022-10-16T10:22:24;19.90;99.90
33815;DHT22;20121;51.910;8.406;2022-10-16T10:30:50;20.00;99.90
33815;DHT22;20121;51.910;8.406;2022-10-16T10:39:13;20.00;99.90
33815;DHT22;20121;51.910;8.406;2022-10-16T10:42:03;20.30;99.90
33815;DHT22;20121;51.910;8.406;2022-10-16T10:44:37;20.50;99.90
33815;DHT22;20121;51.910;8.406;2022-10-16T10:58:31;21.20;99.90
33815;DHT22;20121;51.910;8.406;2022-10-16T11:06:50;20.70;99.60
33815;DHT22;20121;51.910;8.406;2022-10-16T11:09:23;20.40;99.90
33815;DHT22;20121;51.910;8.406;2022-10-16T11:11:51;20.10;99.90
33815;DHT22;20121;51.910;8.406;2022-10-16T11:14:45;19.80;99.90
33815;DHT22;20121;51.910;8.406;2022-10-16T11:17:25;19.60;99.90
33815;DHT22;20121;51.910;8.406;2022-10-16T11:20:20;19.70;99.90
33815;DHT22;20121;51.910;8.406;2022-10-16T11:22:48;19.60;99.90
33815;DHT22;20121;51.910;8.406;2022-10-16T11:25:21;19.50;99.90
33815;DHT22;20121;51.910;8.406;2022-10-16T11:28:25;19.40;99.90
33815;DHT22;20121;51.910;8.406;2022-10-16T11:36:21;19.10;99.90
33815;DHT22;20121;51.910;8.406;2022-10-16T11:39:10;19.20;99.90
33815;DHT22;20121;51.910;8.406;2022-10-16T11:41:56;19.20;99.90
33815;DHT22;20121;51.910;8.406;2022-10-16T11:44:57;19.00;99.90
33815;DHT22;20121;51.910;8.406;2022-10-16T11:47:35;18.90;99.90
33815;DHT22;20121;51.910;8.406;2022-10-16T11:50:26;18.90;99.90
33815;DHT22;20121;51.910;8.406;2022-10-16T11:53:01;18.80;99.90
33815;DHT22;20121;51.910;8.406;2022-10-16T11:55:37;18.70;99.90
33815;DHT22;20121;51.910;8.406;2022-10-16T12:01:28;18.50;99.90
33815;DHT22;20121;51.910;8.406;2022-10-16T12:04:01;18.40;99.90
33815;DHT22;20121;51.910;8.406;2022-10-16T12:06:48;18.40;99.90
33815;DHT22;20121;51.910;8.406;2022-10-16T12:11:47;18.20;99.90
33815;DHT22;20121;51.910;8.406;2022-10-16T12:16:59;18.20;99.90
33815;DHT22;20121;51.910;8.406;2022-10-16T12:19:28;18.30;99.90
33815;DHT22;20121;51.910;8.406;2022-10-16T12:22:01;18.50;99.90
33815;DHT22;20121;51.910;8.406;2022-10-16T12:24:42;18.60;99.90
33815;DHT22;20121;51.910;8.406;2022-10-16T12:27:29;18.70;99.90
33815;DHT22;20121;51.910;8.406;2022-10-16T12:30:00;18.70;99.90
33815;DHT22;20121;51.910;8.406;2022-10-16T12:32:31;18.70;99.90
33815;DHT22;20121;51.910;8.406;2022-10-16T12:34:58;18.60;99.90
33815;DHT22;20121;51.910;8.406;2022-10-16T12:37:35;18.50;99.90
33815;DHT22;20121;51.910;8.406;2022-10-16T12:40:23;18.50;99.90
33815;DHT22;20121;51.910;8.406;2022-10-16T12:42:51;18.70;99.90
33815;DHT22;20121;51.910;8.406;2022-10-16T12:45:31;18.80;99.90
33815;DHT22;20121;51.910;8.406;2022-10-16T12:47:58;18.90;99.90
33815;DHT22;20121;51.910;8.406;2022-10-16T12:50:30;19.00;99.90
33815;DHT22;20121;51.910;8.406;2022-10-16T12:52:57;19.10;99.90
33815;DHT22;20121;51.910;8.406;2022-10-16T12:55:23;19.20;99.90
33815;DHT22;20121;51.910;8.406;2022-10-16T13:00:45;19.40;99.90
33815;DHT22;20121;51.910;8.406;2022-10-16T13:03:50;19.50;99.90
33815;DHT22;20121;51.910;8.406;2022-10-16T13:07:06;19.50;99.90
33815;DHT22;20121;51.910;8.406;2022-10-16T13:10:15;19.50;99.90
33815;DHT22;20121;51.910;8.406;2022-10-16T13:12:56;19.30;99.90
33815;DHT22;20121;51.910;8.406;2022-10-16T13:18:23;19.20;99.90
33815;DHT22;20121;51.910;8.406;2022-10-16T13:26:09;19.20;99.90
33815;DHT22;20121;51.910;8.406;2022-10-16T13:28:37;19.30;99.90
33815;DHT22;20121;51.910;8.406;2022-10-16T13:31:04;19.20;99.90
33815;DHT22;20121;51.910;8.406;2022-10-16T13:33:38;19.20;99.90
33815;DHT22;20121;51.910;8.406;2022-10-16T13:36:05;19.10;99.90
33815;DHT22;20121;51.910;8.406;2022-10-16T13:38:34;19.20;99.90
33815;DHT22;20121;51.910;8.406;2022-10-16T13:41:20;19.10;99.90
33815;DHT22;20121;51.910;8.406;2022-10-16T13:43:49;19.00;99.90
33815;DHT22;20121;51.910;8.406;2022-10-16T13:46:20;18.90;99.90
33815;DHT22;20121;51.910;8.406;2022-10-16T13:49:00;18.90;99.90
33815;DHT22;20121;51.910;8.406;2022-10-16T13:51:27;18.80;99.90
33815;DHT22;20121;51.910;8.406;2022-10-16T13:53:55;18.80;99.90
33815;DHT22;20121;51.910;8.406;2022-10-16T13:56:22;18.90;99.90
33815;DHT22;20121;51.910;8.406;2022-10-16T13:59:04;19.00;99.90
33815;DHT22;20121;51.910;8.406;2022-10-16T14:01:35;19.20;99.90
33815;DHT22;20121;51.910;8.406;2022-10-16T14:04:08;19.30;99.90
33815;DHT22;20121;51.910;8.406;2022-10-16T14:06:35;19.40;99.90
33815;DHT22;20121;51.910;8.406;2022-10-16T14:09:25;19.00;99.90
33815;DHT22;20121;51.910;8.406;2022-10-16T14:12:12;19.30;99.90
33815;DHT22;20121;51.910;8.406;2022-10-16T14:14:46;19.10;99.90
33815;DHT22;20121;51.910;8.406;2022-10-16T14:17:30;19.00;99.90
33815;DHT22;20121;51.910;8.406;2022-10-16T14:19:59;19.00;99.90
33815;DHT22;20121;51.910;8.406;2022-10-16T14:22:36;19.00;99.90
33815;DHT22;20121;51.910;8.406;2022-10-16T14:25:24;19.00;99.90
33815;DHT22;20121;51.910;8.406;2022-10-16T14:28:02;19.10;99.90
33815;DHT22;20121;51.910;8.406;2022-10-16T14:30:29;19.10;99.90
33815;DHT22;20121;51.910;8.406;2022-10-16T14:33:18;19.20;99.90
33815;DHT22;20121;51.910;8.406;2022-10-16T14:35:45;19.30;99.90
33815;DHT22;20121;51.910;8.406;2022-10-16T14:38:18;19.30;99.90
33815;DHT22;20121;51.910;8.406;2022-10-16T14:40:47;19.30;99.90
33815;DHT22;20121;51.910;8.406;2022-10-16T14:43:21;19.20;99.90
33815;DHT22;20121;51.910;8.406;2022-10-16T14:45:52;19.10;99.90
33815;DHT22;20121;51.910;8.406;2022-10-16T14:48:19;19.10;99.90
33815;DHT22;20121;51.910;8.406;2022-10-16T14:50:46;19.10;99.90
33815;DHT22;20121;51.910;8.406;2022-10-16T14:53:12;19.00;99.90
33815;DHT22;20121;51.910;8.406;2022-10-16T14:55:39;18.90;99.90
33815;DHT22;20121;51.910;8.406;2022-10-16T14:58:06;18.90;99.90
33815;DHT22;20121;51.910;8.406;2022-10-16T15:00:35;18.80;99.90
33815;DHT22;20121;51.910;8.406;2022-10-16T15:03:00;18.70;99.90
33815;DHT22;20121;51.910;8.406;2022-10-16T15:05:27;18.70;99.90
33815;DHT22;20121;51.910;8.406;2022-10-16T15:07:54;18.70;99.90
33815;DHT22;20121;51.910;8.406;2022-10-16T15:10:22;18.60;99.90
33815;DHT22;20121;51.910;8.406;2022-10-16T15:12:48;18.60;99.90
33815;DHT22;20121;51.910;8.406;2022-10-16T15:17:54;18.60;99.90
33815;DHT22;20121;51.910;8.406;2022-10-16T15:20:27;18.60;99.90
33815;DHT22;20121;51.910;8.406;2022-10-16T15:22:53;18.50;99.90
33815;DHT22;20121;51.910;8.406;2022-10-16T15:25:38;18.50;99.90
33815;DHT22;20121;51.910;8.406;2022-10-16T15:28:08;18.40;99.90
33815;DHT22;20121;51.910;8.406;2022-10-16T15:30:35;18.30;99.90
33815;DHT22;20121;51.910;8.406;2022-10-16T15:33:01;18.30;99.90
33815;DHT22;20121;51.910;8.406;2022-10-16T15:35:27;18.20;99.90
33815;DHT22;20121;51.910;8.406;2022-10-16T15:37:53;18.10;99.90
33815;DHT22;20121;51.910;8.406;2022-10-16T15:40:20;18.00;99.90
33815;DHT22;20121;51.910;8.406;2022-10-16T15:42:45;17.90;99.90
33815;DHT22;20121;51.910;8.406;2022-10-16T15:45:12;17.80;99.90
33815;DHT22;20121;51.910;8.406;2022-10-16T15:47:40;17.70;99.90
33815;DHT22;20121;51.910;8.406;2022-10-16T15:50:06;17.60;99.90
33815;DHT22;20121;51.910;8.406;2022-10-16T15:52:32;17.60;99.90
33815;DHT22;20121;51.910;8.406;2022-10-16T15:54:58;17.50;99.90
33815;DHT22;20121;51.910;8.406;2022-10-16T15:57:24;17.50;99.90
33815;DHT22;20121;51.910;8.406;2022-10-16T15:59:50;17.40;99.90
33815;DHT22;20121;51.910;8.406;2022-10-16T16:02:16;17.40;99.90
33815;DHT22;20121;51.910;8.406;2022-10-16T16:04:41;17.30;99.90
33815;DHT22;20121;51.910;8.406;2022-10-16T16:07:07;17.30;99.90
33815;DHT22;20121;51.910;8.406;2022-10-16T16:09:33;17.20;99.90
33815;DHT22;20121;51.910;8.406;2022-10-16T16:12:00;17.20;99.90
33815;DHT22;20121;51.910;8.406;2022-10-16T16:14:27;17.10;99.90
33815;DHT22;20121;51.910;8.406;2022-10-16T16:16:55;17.10;99.90
33815;DHT22;20121;51.910;8.406;2022-10-16T16:19:22;17.00;99.90
33815;DHT22;20121;51.910;8.406;2022-10-16T16:21:48;17.00;99.90
33815;DHT22;20121;51.910;8.406;2022-10-16T16:24:14;16.90;99.90
33815;DHT22;20121;51.910;8.406;2022-10-16T16:26:40;16.80;99.90
33815;DHT22;20121;51.910;8.406;2022-10-16T16:29:14;17.10;99.90
33815;DHT22;20121;51.910;8.406;2022-10-16T16:31:41;16.70;99.90
33815;DHT22;20121;51.910;8.406;2022-10-16T16:34:07;16.70;99.90
33815;DHT22;20121;51.910;8.406;2022-10-16T16:36:33;16.70;99.90
33815;DHT22;20121;51.910;8.406;2022-10-16T16:38:59;16.60;99.90
33815;DHT22;20121;51.910;8.406;2022-10-16T16:41:27;16.60;99.90
33815;DHT22;20121;51.910;8.406;2022-10-16T16:43:54;16.60;99.90
33815;DHT22;20121;51.910;8.406;2022-10-16T16:46:20;16.50;99.90
33815;DHT22;20121;51.910;8.406;2022-10-16T16:48:46;16.50;99.90
33815;DHT22;20121;51.910;8.406;2022-10-16T16:51:14;16.50;99.90
33815;DHT22;20121;51.910;8.406;2022-10-16T16:53:47;16.40;99.90
33815;DHT22;20121;51.910;8.406;2022-10-16T16:56:13;16.40;99.90
33815;DHT22;20121;51.910;8.406;2022-10-16T16:58:39;16.40;99.90
33815;DHT22;20121;51.910;8.406;2022-10-16T17:01:05;16.40;99.90
33815;DHT22;20121;51.910;8.406;2022-10-16T17:03:33;16.40;99.90
33815;DHT22;20121;51.910;8.406;2022-10-16T17:06:05;16.30;99.90
33815;DHT22;20121;51.910;8.406;2022-10-16T17:08:32;16.30;99.90
33815;DHT22;20121;51.910;8.406;2022-10-16T17:10:58;16.30;99.90
33815;DHT22;20121;51.910;8.406;2022-10-16T17:13:26;16.20;99.90
33815;DHT22;20121;51.910;8.406;2022-10-16T17:15:52;16.20;99.90
33815;DHT22;20121;51.910;8.406;2022-10-16T17:18:19;16.20;99.90
33815;DHT22;20121;51.910;8.406;2022-10-16T17:20:46;16.10;99.90